Terminal Aerodrome Forecast
Issued by NWS

Home | Current Version | Previous Version | Graphics & Text | Print | Product List | Glossary On
Versions: 1 2 3 4 5 6 7 8 9 10 11 12 13 14 15 16 17
249
FTUS43 KICT 281139
TAFCNU
TAF
KCNU 281139Z 2812/2912 13009KT P6SM VCSH SCT030 OVC070
     FM281400 15010G18KT P6SM VCSH SCT025 BKN050
     FM281500 16010KT P6SM BKN025
     FM281900 19007KT P6SM BKN035
     FM290000 12005KT P6SM VCSH BKN070
     FM290300 05007KT P6SM VCSH BKN080
     FM290600 03014G22KT 4SM +SHRA VCTS OVC008CB=

USA.gov is the U.S. government's official web portal to all federal, state and local government web resources and services.